createdAt,value
2022-12-06T00:00:03.760Z,101461.16
2022-12-06T00:00:44.938Z,101464.72
2022-12-06T00:01:19.042Z,101455.75
2022-12-06T00:01:53.813Z,101462.66
2022-12-06T00:02:25.975Z,101450.38
2022-12-06T00:02:58.122Z,101453.00
2022-12-06T00:03:32.955Z,101454.78
2022-12-06T00:04:07.188Z,101451.34
2022-12-06T00:04:41.912Z,101461.84
2022-12-06T00:05:14.145Z,101461.00
2022-12-06T00:05:46.688Z,101458.53
2022-12-06T00:06:23.565Z,101458.53
2022-12-06T00:06:55.958Z,101467.19
2022-12-06T00:07:28.039Z,101469.03
2022-12-06T00:08:00.235Z,101459.31
2022-12-06T00:08:35.116Z,101469.03
2022-12-06T00:09:08.124Z,101459.47
2022-12-06T00:09:40.225Z,101462.09
2022-12-06T00:10:17.804Z,101459.47
2022-12-06T00:10:50.333Z,101468.31
2022-12-06T00:11:25.169Z,101466.50
2022-12-06T00:12:00.784Z,101462.22
2022-12-06T00:12:32.858Z,101459.59
2022-12-06T00:13:05.415Z,101457.81
2022-12-06T00:13:40.924Z,101459.47
2022-12-06T00:14:13.145Z,101466.41
2022-12-06T00:14:45.270Z,101462.09
2022-12-06T00:15:20.036Z,101463.88
2022-12-06T00:15:52.189Z,101466.41
2022-12-06T00:16:25.678Z,101462.94
2022-12-06T00:17:00.448Z,101461.16
2022-12-06T00:17:32.606Z,101459.31
2022-12-06T00:18:04.798Z,101465.41
2022-12-06T00:18:41.240Z,101455.75
2022-12-06T00:19:15.595Z,101457.69
2022-12-06T00:19:50.270Z,101461.16
2022-12-06T00:20:22.403Z,101450.75
2022-12-06T00:20:54.599Z,101453.50
2022-12-06T00:21:31.356Z,101458.75
2022-12-06T00:22:03.648Z,101454.47
2022-12-06T00:22:38.426Z,101457.91
2022-12-06T00:23:10.557Z,101451.84
2022-12-06T00:23:44.681Z,101457.91
2022-12-06T00:24:21.754Z,101452.66
2022-12-06T00:24:53.944Z,101454.63
2022-12-06T00:25:28.628Z,101456.41
2022-12-06T00:26:03.750Z,101445.78
2022-12-06T00:26:37.664Z,101453.66
2022-12-06T00:27:09.864Z,101452.94
2022-12-06T00:27:44.615Z,101454.72
2022-12-06T00:28:17.135Z,101446.97
2022-12-06T00:28:52.122Z,101456.66
2022-12-06T00:29:27.251Z,101446.28
2022-12-06T00:29:59.532Z,101450.97
2022-12-06T00:30:31.805Z,101448.34
2022-12-06T00:31:09.308Z,101450.97
2022-12-06T00:31:41.656Z,101446.69
2022-12-06T00:32:19.287Z,101450.97
2022-12-06T00:32:54.432Z,101452.75
2022-12-06T00:33:26.566Z,101449.31
2022-12-06T00:33:59.303Z,101444.75
2022-12-06T00:34:34.025Z,101446.56
2022-12-06T00:35:07.303Z,101445.56
2022-12-06T00:35:39.349Z,101452.50
2022-12-06T00:36:12.884Z,101453.31
2022-12-06T00:36:48.944Z,101451.41
2022-12-06T00:37:21.081Z,101447.13
2022-12-06T00:37:53.146Z,101443.53
2022-12-06T00:38:28.600Z,101456.53
2022-12-06T00:39:02.323Z,101454.03
2022-12-06T00:39:34.426Z,101451.41
2022-12-06T00:40:10.754Z,101446.97
2022-12-06T00:40:45.524Z,101447.13
2022-12-06T00:41:19.782Z,101453.22
2022-12-06T00:41:57.466Z,101451.53
2022-12-06T00:42:29.596Z,101444.63
2022-12-06T00:43:01.812Z,101446.28
2022-12-06T00:43:37.810Z,101441.88
2022-12-06T00:44:11.112Z,101448.78
2022-12-06T00:44:45.819Z,101444.50
2022-12-06T00:45:17.942Z,101449.75
2022-12-06T00:45:50.189Z,101448.78
2022-12-06T00:46:27.333Z,101443.53
2022-12-06T00:46:59.526Z,101438.28
2022-12-06T00:47:31.631Z,101445.47
2022-12-06T00:48:06.680Z,101447.13
2022-12-06T00:48:38.940Z,101441.16
2022-12-06T00:49:11.076Z,101449.03
2022-12-06T00:49:45.766Z,101445.47
2022-12-06T00:50:17.973Z,101448.91
2022-12-06T00:50:50.424Z,101443.53
2022-12-06T00:51:26.801Z,101444.34
2022-12-06T00:51:58.896Z,101447.13
2022-12-06T00:52:30.982Z,101449.59
2022-12-06T00:53:05.962Z,101448.09
2022-12-06T00:53:38.169Z,101445.47
2022-12-06T00:54:16.938Z,101447.25
2022-12-06T00:54:49.031Z,101437.69
2022-12-06T00:55:21.127Z,101446.41
2022-12-06T00:55:56.054Z,101442.13
2022-12-06T00:56:30.807Z,101438.69
2022-12-06T00:57:03.006Z,101438.69
2022-12-06T00:57:35.100Z,101431.63
2022-12-06T00:58:09.827Z,101441.03
2022-12-06T00:58:42.486Z,101439.38
2022-12-06T00:59:17.207Z,101441.03
2022-12-06T00:59:49.437Z,101432.34
2022-12-06T01:00:21.659Z,101434.84
2022-12-06T01:00:56.421Z,101434.00
2022-12-06T01:01:33.581Z,101430.41
2022-12-06T01:02:09.682Z,101429.59
2022-12-06T01:02:41.909Z,101425.16
2022-12-06T01:03:14.783Z,101434.69
2022-12-06T01:03:48.093Z,101433.84
2022-12-06T01:04:22.831Z,101430.28
2022-12-06T01:04:55.094Z,101426.81
2022-12-06T01:05:27.628Z,101430.28
2022-12-06T01:06:07.143Z,101433.72
2022-12-06T01:06:39.344Z,101432.22
2022-12-06T01:07:11.464Z,101429.44
2022-12-06T01:07:46.241Z,101430.28
2022-12-06T01:08:19.339Z,101428.59
2022-12-06T01:08:51.477Z,101428.75
2022-12-06T01:09:26.157Z,101421.84
2022-12-06T01:09:58.620Z,101429.81
2022-12-06T01:10:31.091Z,101426.38
2022-12-06T01:11:08.781Z,101427.34
2022-12-06T01:11:40.989Z,101423.06
2022-12-06T01:12:13.084Z,101429.97
2022-12-06T01:12:47.750Z,101429.13
2022-12-06T01:13:19.877Z,101424.72
2022-12-06T01:13:52.962Z,101432.72
2022-12-06T01:14:28.035Z,101428.31
2022-12-06T01:15:00.193Z,101423.88
2022-12-06T01:15:32.354Z,101421.38
2022-12-06T01:16:09.451Z,101418.75
2022-12-06T01:16:41.784Z,101420.69
2022-12-06T01:17:16.509Z,101430.22
2022-12-06T01:17:48.639Z,101422.34
2022-12-06T01:18:21.399Z,101422.34
2022-12-06T01:18:58.527Z,101416.13
2022-12-06T01:19:30.593Z,101416.97
2022-12-06T01:20:03.241Z,101422.22
2022-12-06T01:20:37.931Z,101410.78
2022-12-06T01:21:14.906Z,101411.59
2022-12-06T01:21:48.835Z,101414.22
2022-12-06T01:22:23.509Z,101413.41
2022-12-06T01:22:55.598Z,101412.44
2022-12-06T01:23:27.705Z,101412.44
2022-12-06T01:24:02.525Z,101408.97
2022-12-06T01:24:34.629Z,101413.41
2022-12-06T01:25:07.352Z,101412.56
2022-12-06T01:25:42.038Z,101411.72
2022-12-06T01:26:19.404Z,101411.84
2022-12-06T01:26:54.305Z,101407.59
2022-12-06T01:27:26.553Z,101401.63
2022-12-06T01:27:58.701Z,101405.91
2022-12-06T01:28:30.825Z,101405.19
2022-12-06T01:29:06.434Z,101406.97
2022-12-06T01:29:39.926Z,101403.56
2022-12-06T01:30:12.757Z,101400.22
2022-12-06T01:30:44.919Z,101400.22
2022-12-06T01:31:19.883Z,101400.47
2022-12-06T01:31:52.076Z,101406.41
2022-12-06T01:32:24.952Z,101398.81
2022-12-06T01:32:59.610Z,101402.28
2022-12-06T01:33:31.727Z,101400.59
2022-12-06T01:34:03.838Z,101400.47
2022-12-06T01:34:38.939Z,101403.94
2022-12-06T01:35:11.156Z,101397.84
2022-12-06T01:35:43.618Z,101396.88
2022-12-06T01:36:22.207Z,101395.09
2022-12-06T01:36:54.345Z,101392.59
2022-12-06T01:37:26.442Z,101398.69
2022-12-06T01:38:05.964Z,101401.31
2022-12-06T01:38:38.441Z,101395.34
2022-12-06T01:39:13.796Z,101400.59
2022-12-06T01:39:46.104Z,101397.97
2022-12-06T01:40:18.435Z,101398.81
2022-12-06T01:40:53.421Z,101393.56
2022-12-06T01:41:28.880Z,101393.56
2022-12-06T01:42:01.005Z,101391.06
2022-12-06T01:42:35.707Z,101388.44
2022-12-06T01:43:29.759Z,101391.31
2022-12-06T01:44:04.599Z,101385.25
2022-12-06T01:44:43.327Z,101387.03
2022-12-06T01:45:15.681Z,101382.63
2022-12-06T01:45:50.493Z,101384.41
2022-12-06T01:46:28.751Z,101378.22
2022-12-06T01:47:03.694Z,101380.84
2022-12-06T01:47:39.411Z,101373.06
2022-12-06T01:48:11.677Z,101376.53
2022-12-06T01:48:47.036Z,101375.69
2022-12-06T01:49:23.778Z,101371.28
2022-12-06T01:50:03.041Z,101376.53
2022-12-06T01:50:38.118Z,101371.41
2022-12-06T01:51:13.404Z,101368.94
2022-12-06T01:51:53.801Z,101374.31
2022-12-06T01:52:30.463Z,101369.06
2022-12-06T01:53:07.199Z,101366.53
2022-12-06T01:53:43.113Z,101365.75
2022-12-06T01:54:17.523Z,101363.13
2022-12-06T01:54:52.384Z,101365.75
2022-12-06T01:55:28.937Z,101368.38
2022-12-06T01:56:01.689Z,101369.31
2022-12-06T01:56:40.105Z,101367.66
2022-12-06T01:57:15.421Z,101372.91
2022-12-06T01:57:48.932Z,101372.91
2022-12-06T01:58:30.251Z,101364.19
2022-12-06T01:59:02.561Z,101372.59
2022-12-06T01:59:35.372Z,101360.44
2022-12-06T02:00:11.733Z,101369.16
2022-12-06T02:00:43.872Z,101368.31
2022-12-06T02:01:16.276Z,101369.97
2022-12-06T02:01:51.981Z,101364.59
2022-12-06T02:02:24.382Z,101367.09
2022-12-06T02:03:00.748Z,101367.09
2022-12-06T02:03:36.480Z,101366.25
2022-12-06T02:04:10.021Z,101361.00
2022-12-06T02:04:43.740Z,101361.97
2022-12-06T02:05:19.728Z,101367.66
2022-12-06T02:05:52.585Z,101363.34
2022-12-06T02:06:24.895Z,101364.19
2022-12-06T02:07:01.732Z,101364.06
2022-12-06T02:07:34.228Z,101368.38
2022-12-06T02:08:09.916Z,101363.13
2022-12-06T02:08:45.049Z,101361.44
2022-12-06T02:09:18.726Z,101366.53
2022-12-06T02:09:54.881Z,101363.13
2022-12-06T02:10:27.914Z,101365.75
2022-12-06T02:11:03.089Z,101362.41
2022-12-06T02:11:40.421Z,101359.78
2022-12-06T02:12:14.359Z,101359.78
2022-12-06T02:12:49.421Z,101355.38
2022-12-06T02:13:25.165Z,101359.66
2022-12-06T02:13:57.742Z,101351.78
2022-12-06T02:14:36.012Z,101360.50
2022-12-06T02:15:09.955Z,101364.06
2022-12-06T02:15:56.596Z,101357.03
2022-12-06T02:16:48.268Z,101357.28
2022-12-06T02:17:33.700Z,101356.47
2022-12-06T02:18:16.553Z,101353.03
2022-12-06T02:18:54.386Z,101356.59
2022-12-06T02:20:02.771Z,101359.34
2022-12-06T02:20:41.824Z,101352.69
2022-12-06T02:21:23.078Z,101353.41
2022-12-06T02:22:09.071Z,101360.44
2022-12-06T02:23:10.327Z,101353.41
2022-12-06T02:24:15.081Z,101353.78
2022-12-06T02:25:02.474Z,101363.44
2022-12-06T02:26:16.278Z,101354.75
2022-12-06T02:26:54.877Z,101363.44
2022-12-06T02:27:54.306Z,101363.44
2022-12-06T02:28:50.796Z,101355.56
2022-12-06T02:29:54.959Z,101354.75
2022-12-06T02:30:43.929Z,101351.28
2022-12-06T02:31:26.005Z,101356.53
2022-12-06T02:32:01.219Z,101345.19
2022-12-06T02:32:36.971Z,101352.94
2022-12-06T02:33:18.173Z,101346.75
2022-12-06T02:33:53.257Z,101351.03
2022-12-06T02:34:32.627Z,101351.03
2022-12-06T02:35:15.110Z,101357.09
2022-12-06T02:35:52.595Z,101348.41
2022-12-06T02:36:39.866Z,101350.06
2022-12-06T02:37:15.641Z,101350.06
2022-12-06T02:37:56.425Z,101355.31
2022-12-06T02:38:35.044Z,101353.63
2022-12-06T02:39:12.004Z,101353.63
2022-12-06T02:39:51.131Z,101355.31
2022-12-06T02:40:27.364Z,101349.09
2022-12-06T02:41:02.620Z,101352.56
2022-12-06T02:41:42.264Z,101346.38
2022-12-06T02:42:18.758Z,101350.78
2022-12-06T02:42:55.937Z,101358.66
2022-12-06T02:43:36.713Z,101350.78
2022-12-06T02:44:17.658Z,101349.09
2022-12-06T02:44:53.606Z,101349.00
2022-12-06T02:45:31.858Z,101348.00
2022-12-06T02:46:09.321Z,101350.50
2022-12-06T02:46:43.918Z,101348.84
2022-12-06T02:47:21.555Z,101347.16
2022-12-06T02:47:56.546Z,101348.84
2022-12-06T02:48:28.972Z,101346.22
2022-12-06T02:49:06.758Z,101351.34
2022-12-06T02:49:45.032Z,101343.59
2022-12-06T02:50:20.070Z,101345.38
2022-12-06T02:50:58.725Z,101349.69
2022-12-06T02:51:34.646Z,101350.50
2022-12-06T02:52:06.800Z,101346.22
2022-12-06T02:52:45.202Z,101353.97
2022-12-06T02:53:19.889Z,101352.19
2022-12-06T02:53:54.505Z,101358.13
2022-12-06T02:54:31.552Z,101349.41
2022-12-06T02:55:05.036Z,101348.59
2022-12-06T02:55:37.829Z,101352.19
2022-12-06T02:56:12.690Z,101353.03
2022-12-06T02:56:44.851Z,101354.66
2022-12-06T02:57:19.628Z,101347.63
2022-12-06T02:57:57.505Z,101351.91
2022-12-06T02:58:34.669Z,101364.19
2022-12-06T02:59:06.782Z,101358.84
2022-12-06T02:59:41.451Z,101349.16
2022-12-06T03:00:41.749Z,101349.41
2022-12-06T03:01:22.918Z,101355.50
2022-12-06T03:01:58.953Z,101353.84
2022-12-06T03:02:37.344Z,101352.75
2022-12-06T03:03:29.495Z,101353.59
2022-12-06T03:04:31.612Z,101353.69
2022-12-06T03:05:16.618Z,101351.22
2022-12-06T03:06:17.893Z,101355.50
2022-12-06T03:07:05.039Z,101353.84
2022-12-06T03:07:42.777Z,101354.66
2022-12-06T03:08:30.093Z,101352.88
2022-12-06T03:09:13.589Z,101351.22
2022-12-06T03:10:02.238Z,101345.00
2022-12-06T03:10:41.283Z,101353.84
2022-12-06T03:11:13.929Z,101352.03
2022-12-06T03:11:58.513Z,101362.41
2022-12-06T03:12:35.787Z,101355.50
2022-12-06T03:13:15.519Z,101354.81
2022-12-06T03:13:57.317Z,101358.25
2022-12-06T03:14:39.381Z,101361.84
2022-12-06T03:15:16.789Z,101357.44
2022-12-06T03:15:59.149Z,101353.84
2022-12-06T03:16:42.925Z,101356.47
2022-12-06T03:17:24.000Z,101360.75
2022-12-06T03:18:04.391Z,101358.94
2022-12-06T03:18:46.458Z,101353.03
2022-12-06T03:19:21.599Z,101353.84
2022-12-06T03:19:58.907Z,101353.84
2022-12-06T03:20:43.081Z,101361.84
2022-12-06T03:21:19.773Z,101353.13
2022-12-06T03:21:57.787Z,101351.34
2022-12-06T03:22:40.015Z,101356.72
2022-12-06T03:23:14.484Z,101353.25
2022-12-06T03:23:49.559Z,101355.88
2022-12-06T03:24:27.252Z,101352.31
2022-12-06T03:25:00.978Z,101357.44
2022-12-06T03:25:38.287Z,101359.22
2022-12-06T03:26:14.601Z,101366.25
2022-12-06T03:26:50.089Z,101354.09
2022-12-06T03:27:27.032Z,101356.59
2022-12-06T03:28:01.491Z,101358.25
2022-12-06T03:28:39.221Z,101348.59
2022-12-06T03:29:15.012Z,101353.84
2022-12-06T03:29:52.066Z,101356.47
2022-12-06T03:30:27.382Z,101356.47
2022-12-06T03:31:04.550Z,101355.50
2022-12-06T03:31:42.067Z,101355.50
2022-12-06T03:32:20.626Z,101359.78
2022-12-06T03:32:53.093Z,101361.56
2022-12-06T03:33:30.914Z,101357.03
2022-12-06T03:34:11.360Z,101351.91
2022-12-06T03:34:45.094Z,101355.03
2022-12-06T03:35:23.489Z,101353.41
2022-12-06T03:35:57.991Z,101358.50
2022-12-06T03:36:32.103Z,101355.88
2022-12-06T03:37:09.172Z,101354.81
2022-12-06T03:37:47.198Z,101351.34
2022-12-06T03:38:24.019Z,101354.94
2022-12-06T03:39:03.061Z,101348.16
2022-12-06T03:39:41.912Z,101349.22
2022-12-06T03:40:19.502Z,101345.78
2022-12-06T03:40:56.312Z,101347.56
2022-12-06T03:41:36.543Z,101352.69
2022-12-06T03:42:09.918Z,101348.41
2022-12-06T03:42:44.848Z,101348.28
2022-12-06T03:43:17.252Z,101351.63
2022-12-06T03:43:49.710Z,101345.53
2022-12-06T03:44:24.865Z,101347.16
2022-12-06T03:44:57.406Z,101352.41
2022-12-06T03:45:38.020Z,101350.06
2022-12-06T03:46:17.766Z,101347.72
2022-12-06T03:46:56.904Z,101351.28
2022-12-06T03:47:35.317Z,101346.31
2022-12-06T03:48:14.018Z,101344.53
2022-12-06T03:48:50.062Z,101342.69
2022-12-06T03:49:26.785Z,101339.28
2022-12-06T03:50:05.386Z,101342.59
2022-12-06T03:50:41.822Z,101346.03
2022-12-06T03:51:20.936Z,101342.59
2022-12-06T03:51:53.465Z,101343.41
2022-12-06T03:52:25.766Z,101347.72
2022-12-06T03:53:02.143Z,101345.78
2022-12-06T03:53:34.499Z,101343.16
2022-12-06T03:54:08.550Z,101343.16
2022-12-06T03:54:44.197Z,101343.97
2022-12-06T03:55:16.278Z,101341.34
2022-12-06T03:55:48.468Z,101343.16
2022-12-06T03:56:24.215Z,101339.56
2022-12-06T03:56:56.360Z,101342.19
2022-12-06T03:57:28.562Z,101340.41
2022-12-06T03:58:03.288Z,101333.50
2022-12-06T03:58:35.361Z,101342.19
2022-12-06T03:59:08.613Z,101345.91
2022-12-06T03:59:43.327Z,101344.25
2022-12-06T04:00:16.801Z,101345.09
2022-12-06T04:00:48.965Z,101342.47
2022-12-06T04:01:23.796Z,101336.38
2022-12-06T04:01:58.585Z,101338.88
2022-12-06T04:02:30.825Z,101349.38
2022-12-06T04:03:05.734Z,101344.94
2022-12-06T04:03:37.980Z,101337.91
2022-12-06T04:04:10.530Z,101334.31
2022-12-06T04:04:45.359Z,101332.53
2022-12-06T04:05:17.590Z,101331.69
2022-12-06T04:05:49.888Z,101337.06
2022-12-06T04:06:24.586Z,101337.91
2022-12-06T07:13:04.696Z,101230.50
2022-12-06T07:13:38.280Z,101226.78
2022-12-06T07:14:13.025Z,101243.22
2022-12-06T07:14:45.165Z,101235.19
2022-12-06T07:15:17.544Z,101225.28
2022-12-06T07:15:52.209Z,101231.94
2022-12-06T07:16:24.415Z,101228.91
2022-12-06T07:16:59.176Z,101219.63
2022-12-06T07:17:31.386Z,101222.84
2022-12-06T07:18:03.497Z,101226.00
2022-12-06T07:18:38.170Z,101229.19
2022-12-06T07:19:10.273Z,101227.94
2022-12-06T07:19:42.371Z,101227.53
2022-12-06T07:20:17.028Z,101231.41
2022-12-06T07:20:49.954Z,101222.56
2022-12-06T07:21:24.719Z,101229.22
2022-12-06T07:21:56.802Z,101228.09
2022-12-06T07:22:30.275Z,101228.50
2022-12-06T07:23:05.169Z,101229.75
2022-12-06T07:23:37.317Z,101228.63
2022-12-06T07:24:11.997Z,101232.94
2022-12-06T07:24:49.172Z,101232.66
2022-12-06T07:25:26.996Z,101239.16
2022-12-06T07:26:01.773Z,101231.97
2022-12-06T07:26:36.474Z,101223.66
2022-12-06T07:27:08.776Z,101225.88
2022-12-06T07:27:43.570Z,101227.25
2022-12-06T07:28:18.206Z,101225.84
2022-12-06T07:28:51.593Z,101225.59
2022-12-06T07:29:26.536Z,101231.25
2022-12-06T07:29:59.814Z,101231.09
2022-12-06T07:30:32.150Z,101222.22
2022-12-06T07:31:13.807Z,101222.94
2022-12-06T07:31:45.949Z,101222.09
2022-12-06T07:32:20.624Z,101225.41
2022-12-06T07:32:52.733Z,101224.31
2022-12-06T07:33:24.840Z,101217.78
2022-12-06T07:34:01.201Z,101224.44
2022-12-06T07:34:33.574Z,101223.28
2022-12-06T07:35:09.377Z,101222.19
2022-12-06T07:36:10.841Z,101212.50
2022-12-06T07:36:36.272Z,101221.06
2022-12-06T07:37:08.685Z,101218.31
2022-12-06T07:37:42.433Z,101214.56
2022-12-06T07:38:17.155Z,101206.66
2022-12-06T07:38:50.825Z,101208.31
2022-12-06T07:39:26.734Z,101209.28
2022-12-06T07:39:59.271Z,101211.91
2022-12-06T07:41:02.860Z,101229.38
2022-12-06T07:41:40.697Z,101215.69
2022-12-06T07:42:36.995Z,101221.91
2022-12-06T07:43:25.072Z,101219.28
2022-12-06T07:44:16.145Z,101220.94
2022-12-06T07:45:08.887Z,101223.41
2022-12-06T07:45:43.606Z,101218.72
2022-12-06T07:46:15.716Z,101221.03
2022-12-06T07:46:48.848Z,101212.03
2022-12-06T07:47:23.823Z,101217.16
2022-12-06T07:47:55.909Z,101216.06
2022-12-06T07:48:30.656Z,101211.59
2022-12-06T07:49:02.852Z,101212.44
2022-12-06T07:49:35.049Z,101201.91
2022-12-06T07:50:17.530Z,101214.09
2022-12-06T07:50:52.458Z,101212.16
2022-12-06T07:51:24.566Z,101217.25
2022-12-06T07:51:59.670Z,101212.69
2022-12-06T07:52:33.044Z,101203.84
2022-12-06T07:53:08.097Z,101218.50
2022-12-06T07:53:40.228Z,101208.66
2022-12-06T07:54:15.326Z,101208.50
2022-12-06T07:54:47.402Z,101211.97
2022-12-06T07:55:22.459Z,101214.59
2022-12-06T07:55:54.515Z,101212.94
2022-12-06T07:56:26.661Z,101208.50
2022-12-06T07:57:01.387Z,101214.47
2022-12-06T07:57:38.585Z,101213.50
2022-12-06T07:58:16.492Z,101213.63
2022-12-06T07:58:48.651Z,101210.03
2022-12-06T07:59:23.447Z,101208.22
2022-12-06T07:59:58.817Z,101221.22
2022-12-06T08:00:31.128Z,101209.84
2022-12-06T08:01:03.797Z,101218.44
2022-12-06T08:01:38.613Z,101222.75
2022-12-06T08:02:18.951Z,101220.78
2022-12-06T08:02:53.703Z,101207.63
2022-12-06T08:03:25.840Z,101211.78
2022-12-06T08:03:59.850Z,101204.72
2022-12-06T08:04:34.684Z,101211.78
2022-12-06T08:05:07.749Z,101201.78
2022-12-06T08:05:40.336Z,101196.22
2022-12-06T08:06:15.072Z,101201.34
2022-12-06T08:06:47.231Z,101201.19
2022-12-06T08:07:22.523Z,101198.56
2022-12-06T08:07:54.747Z,101202.19
2022-12-06T08:08:29.183Z,101202.00
2022-12-06T08:09:04.157Z,101201.88
2022-12-06T08:09:36.323Z,101199.94
2022-12-06T08:10:11.786Z,101195.34
2022-12-06T08:10:43.874Z,101202.28
2022-12-06T08:11:15.958Z,101198.66
2022-12-06T08:11:50.629Z,101195.88
2022-12-06T08:12:23.390Z,101197.22
2022-12-06T08:12:58.163Z,101196.13
2022-12-06T08:13:30.420Z,101186.94
2022-12-06T08:14:02.888Z,101190.25
2022-12-06T08:14:40.574Z,101184.97
2022-12-06T08:15:13.332Z,101183.34
2022-12-06T08:15:48.119Z,101184.00
2022-12-06T08:16:20.370Z,101183.88
2022-12-06T08:16:52.474Z,101195.91
2022-12-06T08:17:27.180Z,101187.72
2022-12-06T08:17:59.511Z,101190.88
2022-12-06T08:18:32.031Z,101185.63
2022-12-06T08:19:06.826Z,101190.75
2022-12-06T08:19:39.014Z,101182.66
2022-12-06T08:20:12.598Z,101186.13
2022-12-06T08:20:47.398Z,101185.16
2022-12-06T08:21:19.573Z,101183.38
2022-12-06T08:21:54.373Z,101176.28
2022-12-06T08:22:26.602Z,101188.31
2022-12-06T08:22:58.710Z,101178.63
2022-12-06T08:23:34.557Z,101192.63
2022-12-06T08:24:07.553Z,101183.88
2022-12-06T08:24:42.219Z,101183.88
2022-12-06T08:25:14.391Z,101191.66
2022-12-06T08:25:46.500Z,101179.13
2022-12-06T08:26:21.453Z,101187.03
2022-12-06T08:26:53.710Z,101183.44
2022-12-06T08:27:25.949Z,101182.47
2022-12-06T08:28:00.643Z,101180.66
2022-12-06T08:28:34.094Z,101188.41
2022-12-06T08:29:09.021Z,101179.66
2022-12-06T08:29:45.455Z,101181.31
2022-12-06T08:30:20.394Z,101178.69
2022-12-06T08:30:52.826Z,101176.88
2022-12-06T08:31:25.191Z,101175.91
2022-12-06T08:31:59.998Z,101170.66
2022-12-06T08:32:32.137Z,101172.44
2022-12-06T08:33:04.316Z,101172.44
2022-12-06T08:33:39.409Z,101165.81
2022-12-06T08:34:12.638Z,101170.94
2022-12-06T08:34:47.688Z,101170.94
2022-12-06T08:35:19.773Z,101174.56
2022-12-06T08:35:52.458Z,101168.28
2022-12-06T08:36:27.867Z,101168.47
2022-12-06T08:37:03.307Z,101170.13
2022-12-06T08:37:38.529Z,101171.09
2022-12-06T08:38:10.753Z,101171.09
2022-12-06T08:38:43.438Z,101169.13
2022-12-06T08:39:18.237Z,101169.69
2022-12-06T08:39:50.322Z,101163.25
2022-12-06T08:40:22.815Z,101158.69
2022-12-06T08:40:57.539Z,101154.22
2022-12-06T08:41:44.629Z,101165.59
2022-12-06T08:42:22.045Z,101162.56
2022-12-06T08:42:59.509Z,101158.75
2022-12-06T08:43:32.506Z,101148.34
2022-12-06T08:44:05.435Z,101148.22
2022-12-06T08:44:40.204Z,101147.38
2022-12-06T08:45:15.012Z,101149.19
2022-12-06T08:45:50.829Z,101150.16
2022-12-06T08:46:23.465Z,101143.41
2022-12-06T08:46:59.637Z,101154.59
2022-12-06T08:47:32.009Z,101156.41
2022-12-06T08:48:07.021Z,101148.34
2022-12-06T08:48:42.993Z,101151.00
2022-12-06T08:49:20.278Z,101154.47
2022-12-06T08:49:52.424Z,101140.97
2022-12-06T08:50:24.644Z,101151.69
2022-12-06T08:50:59.312Z,101155.66
2022-12-06T08:51:33.357Z,101154.53
2022-12-06T08:52:08.126Z,101154.22
2022-12-06T08:52:40.229Z,101153.09
2022-12-06T08:53:12.303Z,101152.97
2022-12-06T08:53:47.051Z,101153.09
2022-12-06T08:54:22.063Z,101146.03
2022-12-06T08:54:56.733Z,101164.63
2022-12-06T08:55:28.893Z,101155.88
2022-12-06T08:56:03.071Z,101148.94
2022-12-06T08:56:39.897Z,101145.66
2022-12-06T08:57:12.158Z,101154.66
2022-12-06T08:57:46.833Z,101148.28
2022-12-06T08:58:19.033Z,101152.41
2022-12-06T08:58:55.890Z,101155.72
2022-12-06T08:59:28.142Z,101149.50
2022-12-06T09:00:03.181Z,101145.06
2022-12-06T09:00:38.225Z,101150.00
2022-12-06T09:01:12.854Z,101148.22
2022-12-06T09:01:48.418Z,101145.41
2022-12-06T09:02:20.626Z,101144.94
2022-12-06T09:02:52.826Z,101147.56
2022-12-06T09:03:28.146Z,101143.97
2022-12-06T09:04:01.860Z,101138.25
2022-12-06T09:04:36.745Z,101146.00
2022-12-06T09:05:09.897Z,101143.19
2022-12-06T09:05:42.201Z,101142.41
2022-12-06T09:06:17.422Z,101124.09
2022-12-06T09:06:50.201Z,101135.47
2022-12-06T09:07:26.487Z,101135.59
2022-12-06T09:07:58.647Z,101142.69
2022-12-06T09:08:30.851Z,101137.41
2022-12-06T09:09:05.612Z,101125.38
2022-12-06T09:09:37.730Z,101137.72
2022-12-06T09:10:13.653Z,101129.00
2022-12-06T09:10:45.809Z,101130.28
2022-12-06T09:11:18.993Z,101125.00
2022-12-06T09:11:53.725Z,101137.88
2022-12-06T09:12:26.106Z,101132.59
2022-12-06T09:12:58.192Z,101136.91
2022-12-06T09:13:33.136Z,101133.44
2022-12-06T09:14:05.552Z,101135.09
2022-12-06T09:14:40.527Z,101136.91
2022-12-06T09:15:12.616Z,101134.41
2022-12-06T09:15:47.419Z,101144.13
2022-12-06T09:16:24.052Z,101131.63
2022-12-06T09:16:56.350Z,101133.56
2022-12-06T09:17:31.104Z,101124.88
2022-12-06T09:18:03.195Z,101132.78
2022-12-06T09:18:38.405Z,101130.66
2022-12-06T09:19:11.360Z,101131.31
2022-12-06T09:19:46.253Z,101125.06
2022-12-06T09:20:18.549Z,101132.81
2022-12-06T09:20:50.724Z,101130.72
2022-12-06T09:21:28.993Z,101129.03
2022-12-06T09:22:01.169Z,101129.03
2022-12-06T09:22:35.945Z,101144.34
2022-12-06T09:23:08.043Z,101129.50
2022-12-06T09:23:42.787Z,101127.31
2022-12-06T09:24:17.650Z,101112.81
2022-12-06T09:24:52.443Z,101119.22
2022-12-06T09:25:24.644Z,101112.28
2022-12-06T09:25:56.772Z,101115.91
2022-12-06T09:26:31.798Z,101115.06
2022-12-06T09:27:04.047Z,101117.69
2022-12-06T09:27:38.827Z,101121.69
2022-12-06T09:28:11.942Z,101119.59
2022-12-06T09:28:46.469Z,101122.56
2022-12-06T09:29:22.070Z,101118.81
2022-12-06T09:29:54.307Z,101118.50
2022-12-06T09:30:26.867Z,101112.25
2022-12-06T09:31:05.007Z,101113.59
2022-12-06T09:31:39.580Z,101117.91
2022-12-06T09:32:14.363Z,101119.69
2022-12-06T09:32:48.377Z,101111.78
2022-12-06T09:33:24.440Z,101108.84
2022-12-06T09:33:56.763Z,101106.56
2022-12-06T09:34:31.544Z,101107.78
2022-12-06T09:35:04.152Z,101104.66
2022-12-06T09:35:39.622Z,101102.84
2022-12-06T09:36:15.284Z,101105.63
2022-12-06T09:36:55.022Z,101126.72
2022-12-06T09:37:27.550Z,101106.09
2022-12-06T09:38:03.960Z,101107.91
2022-12-06T09:38:38.603Z,101106.56
2022-12-06T09:39:18.481Z,101109.53
2022-12-06T09:39:55.865Z,101115.25
2022-12-06T09:40:41.310Z,101105.84
2022-12-06T09:41:30.441Z,101107.81
2022-12-06T09:42:35.772Z,101098.38
2022-12-06T09:43:24.363Z,101104.44
2022-12-06T09:44:15.898Z,101103.78
2022-12-06T09:45:10.670Z,101101.44
2022-12-06T09:46:15.228Z,101094.69
2022-12-06T09:47:00.122Z,101102.72
2022-12-06T09:47:51.165Z,101103.88
2022-12-06T09:48:49.264Z,101103.88
2022-12-06T09:49:33.042Z,101092.34
2022-12-06T09:50:15.426Z,101103.69
2022-12-06T09:51:01.598Z,101091.34
2022-12-06T09:51:48.669Z,101098.13
2022-12-06T09:52:43.731Z,101097.00
2022-12-06T09:53:24.001Z,101088.94
2022-12-06T09:54:12.336Z,101098.50
2022-12-06T09:55:08.721Z,101092.56
2022-12-06T09:55:54.342Z,101088.94
2022-12-06T09:56:39.035Z,101082.84